Forside
METAR-TAF:

METAR-TAF

Lufthavne :

Duluth, Minnesota, USA

Breddekreds: 46-50-34N, længdekreds: 092-13-34W, højde: 435 m

Aktuelle vejr

Denne rapport blev lavet for 26 minutter siden, kl. 08:55 UTC
Vind 5 kt fra vest
Temperatur -11°C
Fugtighed 78%
Tryk 1023 hPa
Sigt: 16.1 km
skyfri

METAR: KDLH 270855Z 26005KT 10SM CLR M11/M14 A3021 RMK AO2 SLP258 T11061144 56010

Tid: 04:21 (09:21 UTC)

Vejrudsigter

Denne rapport blev lavet for 4 timer og 1 minutter siden, kl. 05:20 UTC
Foreløbig gælder fra 27 på 06 UTC til 28 på 06 UTC
Vind 6 kt fra sydvest
Sigt: 10 km
Nogle få skyer i en højde af 4000 ft
Fra 27 på 1400 UTC
Vind 12 kt fra sydvest med vindstød på up til 21 kt
Sigt: 10 km
Nogle få skyer i en højde af 25000 ft
Fra 27 på 2100 UTC
Vind 15 kt fra sydvest med vindstød på up til 24 kt
Sigt: 10 km
Brudte skyer i en højde af 20000 ft

TAF: KDLH 270520Z 2706/2806 23006KT P6SM FEW040 FM271400 23012G21KT P6SM FEW250 FM272100 22015G24KT P6SM BKN200

Vejrobservationer og prognoser fra mere end 4000 lufthavne (METAR og TAF).

De gule og røde prikker repræsenterer de meteorologiske stationer.

Flyt musen over at se navnet på stationen.

Så klik over at se vejr observationer og prognoser.

At skifte det kort: Klik på de grønne knapper med et sort kors for at zoome ind; på den grønne knap med en bindestreg for at zoome ud; eller på de grønne pile for tilstødende kort.


METAR-TAF: